Time;durP1;ratioP1;P1;durP2;ratioP2;P2;SDS_P1;SDS_P2;PMS_P1;PMS_P2;Temp;Humidity;BMP_temperature;BMP_pressure;BME280_temperature;BME280_humidity;BME280_pressure;Samples;Min_cycle;Max_cycle;Signal;HPM_P1;HPM_P2
2024/01/13 00:01:02;;;;;;;12.88;8.02;;;;;;;4.82;81.67;100869.38;4972848;28;20134;-76
2024/01/13 00:03:29;;;;;;;15.90;7.72;;;;;;;4.82;81.50;100866.75;4955734;28;20078;-77
2024/01/13 00:05:56;;;;;;;36.38;8.95;;;;;;;4.81;81.53;100857.22;4973003;28;20060;-76
2024/01/13 00:08:22;;;;;;;24.20;8.65;;;;;;;4.81;81.42;100862.44;4972802;28;20485;-76
2024/01/13 00:11:02;;;;;;;17.00;7.88;;;;;;;4.81;81.37;100859.81;4972420;28;20110;-77
2024/01/13 00:13:28;;;;;;;10.43;7.55;;;;;;;4.80;81.44;100852.88;4955517;28;20150;-76
2024/01/13 00:15:55;;;;;;;9.55;7.10;;;;;;;4.80;81.33;100857.25;4972820;28;20137;-76
2024/01/13 00:18:22;;;;;;;9.60;6.45;;;;;;;4.78;81.42;100849.44;4972867;28;20047;-76
2024/01/13 00:21:04;;;;;;;10.05;7.00;;;;;;;4.78;81.25;100852.03;4957474;28;20051;-76
2024/01/13 00:23:31;;;;;;;11.75;7.38;;;;;;;4.79;81.70;100850.31;4972317;28;20121;-77
2024/01/13 00:25:57;;;;;;;9.93;7.65;;;;;;;4.78;81.60;100849.44;4972508;28;20138;-76
2024/01/13 00:28:24;;;;;;;12.60;7.53;;;;;;;4.78;81.43;100849.44;4972422;28;20145;-76
2024/01/13 00:31:02;;;;;;;19.60;7.78;;;;;;;4.80;81.33;100844.19;4972195;28;20054;-76
2024/01/13 00:33:28;;;;;;;43.47;9.07;;;;;;;4.79;81.52;100837.25;4971993;28;20147;-77
2024/01/13 00:35:57;;;;;;;9.63;7.32;;;;;;;4.78;81.33;100841.59;4972372;28;20054;-76
2024/01/13 00:38:24;;;;;;;8.27;6.35;;;;;;;4.78;81.60;100841.59;4972451;28;20138;-76
2024/01/13 00:41:03;;;;;;;7.15;5.60;;;;;;;4.78;81.47;100838.13;4972175;28;20047;-76
2024/01/13 00:43:29;;;;;;;6.47;5.75;;;;;;;4.77;81.40;100837.28;4955076;28;20058;-76
2024/01/13 00:45:56;;;;;;;6.55;5.20;;;;;;;4.76;81.41;100839.91;4972395;28;20062;-76
2024/01/13 00:48:23;;;;;;;8.85;6.05;;;;;;;4.76;81.61;100835.56;4972326;28;20047;-77
2024/01/13 00:51:04;;;;;;;8.55;6.03;;;;;;;4.76;81.52;100830.34;4972279;28;20106;-77
2024/01/13 00:53:31;;;;;;;10.38;5.57;;;;;;;4.74;81.64;100824.28;4972121;28;20050;-77
2024/01/13 00:56:01;;;;;;;6.82;5.03;;;;;;;4.75;81.35;100825.16;4955487;28;20055;-77
2024/01/13 00:58:27;;;;;;;5.60;4.20;;;;;;;4.74;81.47;100823.44;4972054;28;20055;-76
2024/01/13 01:01:07;;;;;;;5.72;4.18;;;;;;;4.74;81.48;100823.44;4971756;28;20484;-77
2024/01/13 01:03:34;;;;;;;5.60;4.35;;;;;;;4.73;81.39;100825.16;4954622;28;20054;-76
2024/01/13 01:06:01;;;;;;;6.20;4.75;;;;;;;4.71;81.20;100826.91;4954732;28;20142;-76
2024/01/13 01:08:29;;;;;;;5.60;4.47;;;;;;;4.71;81.37;100819.09;4972106;28;20146;-76
2024/01/13 01:11:06;;;;;;;6.07;4.65;;;;;;;4.71;81.21;100826.06;4971965;28;20461;-76
2024/01/13 01:13:33;;;;;;;6.15;4.78;;;;;;;4.70;81.32;100827.81;4954612;28;20105;-76
2024/01/13 01:18:35;;;;;;;18.48;6.38;;;;;;;4.70;81.82;100822.59;4970158;28;20456;-77
2024/01/13 01:21:15;;;;;;;19.35;6.40;;;;;;;4.69;81.50;100819.16;4971948;28;20424;-77
2024/01/13 01:23:45;;;;;;;40.50;7.00;;;;;;;4.72;81.72;100810.41;4971739;28;20051;-77
2024/01/13 01:26:12;;;;;;;8.80;5.75;;;;;;;4.72;81.53;100806.94;4954692;28;20141;-77
2024/01/13 01:28:39;;;;;;;8.60;6.05;;;;;;;4.72;81.50;100801.72;4971600;28;20480;-77
2024/01/13 01:31:06;;;;;;;66.50;8.57;;;;;;;4.70;81.18;100796.50;4971722;28;20154;-76
2024/01/13 01:33:34;;;;;;;48.47;6.50;;;;;;;4.70;81.39;100801.72;4971626;28;20059;-76
2024/01/13 01:36:02;;;;;;;9.63;4.80;;;;;;;4.69;81.30;100797.41;4971713;28;20254;-77
2024/01/13 01:38:29;;;;;;;9.05;4.05;;;;;;;4.68;81.46;100793.09;4971651;28;20051;-76
2024/01/13 01:41:09;;;;;;;13.18;4.97;;;;;;;4.67;81.57;100794.81;4971469;28;20051;-76
2024/01/13 01:43:36;;;;;;;17.98;5.38;;;;;;;4.67;81.25;100791.34;4971531;28;20078;-77
2024/01/13 01:46:04;;;;;;;24.60;6.15;;;;;;;4.66;81.81;100793.09;4971602;28;20106;-76
2024/01/13 01:48:38;;;;;;;7.43;5.13;;;;;;;4.63;81.18;100790.53;4954729;28;20051;-77
2024/01/13 01:51:10;;;;;;;47.25;7.53;;;;;;;4.65;81.26;100787.91;4971459;28;20133;-77
2024/01/13 01:53:39;;;;;;;15.10;5.75;;;;;;;4.65;81.71;100786.19;4971269;28;20549;-77
2024/01/13 01:56:13;;;;;;;68.07;10.32;;;;;;;4.64;81.18;100770.53;4971758;28;20047;-76
2024/01/13 01:58:41;;;;;;;82.93;8.90;;;;;;;4.65;81.60;100769.66;4971525;28;20063;-76
2024/01/13 02:01:08;;;;;;;49.53;6.88;;;;;;;4.65;81.52;100769.66;4953914;28;20645;-77
2024/01/13 02:03:37;;;;;;;103.85;9.95;;;;;;;4.65;81.70;100765.31;4971166;28;20051;-77
2024/01/13 02:06:05;;;;;;;9.80;4.93;;;;;;;4.64;81.72;100763.56;4972163;28;20569;-77
2024/01/13 02:08:33;;;;;;;21.15;5.97;;;;;;;4.65;81.69;100769.66;4971583;28;20061;-77
2024/01/13 02:11:10;;;;;;;7.13;5.07;;;;;;;4.64;81.11;100767.94;4971263;28;20133;-76
2024/01/13 02:13:39;;;;;;;14.07;4.90;;;;;;;4.65;81.48;100757.47;4971201;28;20047;-76
2024/01/13 02:16:08;;;;;;;5.88;5.05;;;;;;;4.62;81.28;100757.53;4973629;28;20050;-77
2024/01/13 02:18:35;;;;;;;7.68;4.63;;;;;;;4.62;81.53;100760.13;4974917;28;20053;-76
2024/01/13 02:21:07;;;;;;;7.03;5.38;;;;;;;4.62;81.31;100749.69;4958623;28;20066;-77
2024/01/13 02:23:34;;;;;;;5.88;4.88;;;;;;;4.60;81.15;100748.00;4974761;28;20472;-76
2024/01/13 02:26:01;;;;;;;7.78;4.13;;;;;;;4.59;81.24;100741.91;4974838;28;20071;-77
2024/01/13 02:28:28;;;;;;;5.25;4.07;;;;;;;4.57;81.58;100741.09;4957262;28;20057;-77
2024/01/13 02:31:10;;;;;;;3.58;3.25;;;;;;;4.59;81.44;100738.47;4974505;28;20644;-77
2024/01/13 02:33:37;;;;;;;4.05;3.42;;;;;;;4.57;81.51;100726.28;4974630;28;20138;-76
2024/01/13 02:36:05;;;;;;;4.20;3.50;;;;;;;4.57;81.60;100715.88;4974599;28;20484;-77
2024/01/13 02:38:33;;;;;;;6.63;4.13;;;;;;;4.56;81.59;100714.16;4974562;28;20139;-77
2024/01/13 02:41:06;;;;;;;5.67;4.13;;;;;;;4.57;81.75;100720.25;4974278;28;20055;-77
2024/01/13 02:43:35;;;;;;;6.20;4.70;;;;;;;4.57;81.58;100708.03;4974161;28;20054;-77
2024/01/13 02:46:02;;;;;;;8.88;5.03;;;;;;;4.57;81.45;100699.38;4974470;28;20117;-76
2024/01/13 02:48:34;;;;;;;6.70;4.53;;;;;;;4.56;81.50;100689.81;4957391;28;20062;-76
2024/01/13 02:51:10;;;;;;;5.47;4.28;;;;;;;4.55;81.49;100686.38;5077376;23;20042;-76
2024/01/13 02:53:38;;;;;;;6.35;4.75;;;;;;;4.57;81.47;100695.00;4974136;28;20684;-78
2024/01/13 02:56:04;;;;;;;7.20;4.65;;;;;;;4.56;81.44;100685.47;4973973;28;20058;-76
2024/01/13 02:58:34;;;;;;;6.88;4.82;;;;;;;4.54;81.22;100689.84;4956938;28;20051;-76
2024/01/13 03:01:10;;;;;;;6.65;5.03;;;;;;;4.54;81.25;100686.38;4974057;28;20109;-78
2024/01/13 03:03:37;;;;;;;6.13;4.68;;;;;;;4.52;81.27;100686.41;4974058;28;20049;-77
2024/01/13 03:06:06;;;;;;;4.95;4.18;;;;;;;4.50;81.30;100680.38;4956996;28;20131;-76
2024/01/13 03:08:33;;;;;;;7.20;5.18;;;;;;;4.49;81.54;100680.38;4957128;28;20129;-76
2024/01/13 03:11:11;;;;;;;5.35;4.20;;;;;;;4.47;81.41;100675.19;4973867;28;20510;-77
2024/01/13 03:13:39;;;;;;;4.35;3.88;;;;;;;4.47;81.58;100675.19;4973868;28;20046;-77
2024/01/13 03:16:06;;;;;;;6.63;4.70;;;;;;;4.47;81.53;100666.50;4974051;28;20141;-76
2024/01/13 03:18:33;;;;;;;4.88;4.10;;;;;;;4.47;81.48;100666.50;4973645;28;20082;-77
2024/01/13 03:21:07;;;;;;;17.45;4.40;;;;;;;4.43;81.49;100653.53;4974028;28;20480;-76
2024/01/13 03:23:35;;;;;;;8.23;3.65;;;;;;;4.42;81.56;100648.34;4973840;28;20077;-76
2024/01/13 03:26:01;;;;;;;5.07;3.67;;;;;;;4.41;81.46;100649.25;4973747;28;20071;-77
2024/01/13 03:28:28;;;;;;;6.30;3.88;;;;;;;4.39;81.59;100638.84;4973780;28;20049;-76
2024/01/13 03:31:09;;;;;;;6.78;3.40;;;;;;;4.39;81.59;100648.38;4973413;28;20047;-76
2024/01/13 03:33:39;;;;;;;4.63;3.70;;;;;;;4.39;81.63;100638.84;4973827;28;20058;-77
2024/01/13 03:36:07;;;;;;;4.75;3.75;;;;;;;4.38;81.83;100646.69;4973819;28;20059;-76
2024/01/13 03:38:34;;;;;;;5.03;3.67;;;;;;;4.40;81.62;100655.31;4973609;28;20050;-77
2024/01/13 03:41:09;;;;;;;17.17;4.28;;;;;;;4.38;81.69;100647.53;4973481;28;20125;-77
2024/01/13 03:43:36;;;;;;;24.58;4.18;;;;;;;4.38;81.80;100647.53;4973412;28;20106;-76
2024/01/13 03:46:03;;;;;;;21.27;4.90;;;;;;;4.39;81.84;100630.16;4956347;28;20105;-77
2024/01/13 03:48:30;;;;;;;41.25;6.10;;;;;;;4.40;81.54;100631.84;4956399;28;20067;-77
2024/01/13 03:50:58;;;;;;;60.20;6.53;;;;;;;4.40;81.80;100630.13;5111664;23;20065;-78
2024/01/13 03:53:25;;;;;;;35.28;5.60;;;;;;;4.41;81.58;100628.38;4973079;28;20066;-77
2024/01/13 03:55:52;;;;;;;10.57;4.40;;;;;;;4.40;81.95;100629.25;4973079;28;20086;-76
2024/01/13 03:58:19;;;;;;;9.77;3.40;;;;;;;4.41;81.85;100625.78;4972944;28;20082;-76
2024/01/13 04:00:46;;;;;;;8.57;3.40;;;;;;;4.41;81.67;100616.19;4972997;28;20078;-76
2024/01/13 04:03:17;;;;;;;13.30;3.35;;;;;;;4.40;81.58;100622.31;4973081;28;20047;-77
2024/01/13 04:05:44;;;;;;;31.58;6.13;;;;;;;4.40;81.66;100616.22;4972976;28;20102;-76
2024/01/13 04:08:10;;;;;;;47.00;4.63;;;;;;;4.38;81.64;100607.56;4973086;28;20427;-76
2024/01/13 04:10:37;;;;;;;35.25;4.50;;;;;;;4.37;81.44;100604.09;4972566;28;20487;-76
2024/01/13 04:13:04;;;;;;;71.35;6.93;;;;;;;4.36;81.42;100610.22;4972911;28;20074;-77
2024/01/13 04:15:32;;;;;;;32.42;4.45;;;;;;;4.35;81.72;100610.22;4972843;28;20110;-76
2024/01/13 04:17:59;;;;;;;32.95;4.43;;;;;;;4.33;81.52;100612.00;4972812;28;20059;-76
2024/01/13 04:20:26;;;;;;;7.35;3.47;;;;;;;4.30;81.87;100608.56;4972607;28;20050;-77
2024/01/13 04:22:52;;;;;;;9.55;3.35;;;;;;;4.29;82.01;100606.84;4955098;28;20065;-76
2024/01/13 04:25:20;;;;;;;48.85;5.53;;;;;;;4.30;82.12;100610.31;4972771;28;20066;-77
2024/01/13 04:27:48;;;;;;;16.88;3.97;;;;;;;4.30;82.30;100603.34;4972848;28;20102;-77
2024/01/13 04:30:14;;;;;;;12.40;3.85;;;;;;;4.30;81.99;100605.94;4973329;28;20484;-76
2024/01/13 04:32:42;;;;;;;43.28;5.57;;;;;;;4.32;82.08;100608.53;4926941;23;20043;-77
2024/01/13 04:35:09;;;;;;;26.20;5.00;;;;;;;4.34;82.27;100606.75;4972525;28;20054;-76
2024/01/13 04:37:35;;;;;;;36.10;4.90;;;;;;;4.34;82.17;100598.94;4971874;28;20097;-76
2024/01/13 04:40:03;;;;;;;15.27;3.95;;;;;;;4.35;82.01;100600.69;4972529;28;20054;-78
2024/01/13 04:42:33;;;;;;;4.13;3.60;;;;;;;4.36;81.84;100604.13;4955092;28;20154;-77
2024/01/13 04:45:00;;;;;;;5.40;4.10;;;;;;;4.35;82.10;100594.59;4972423;28;20074;-76
2024/01/13 04:47:27;;;;;;;5.72;3.75;;;;;;;4.34;81.93;100583.28;4972317;28;20086;-77
2024/01/13 04:49:54;;;;;;;5.15;3.97;;;;;;;4.34;81.74;100591.09;4972266;28;20055;-76
2024/01/13 04:52:20;;;;;;;5.63;4.40;;;;;;;4.34;81.96;100595.47;4971882;28;20051;-76
2024/01/13 04:54:47;;;;;;;5.03;4.03;;;;;;;4.34;82.15;100592.88;4972123;28;20109;-77
2024/01/13 04:57:13;;;;;;;4.32;3.75;;;;;;;4.34;82.18;100587.66;4972276;28;20183;-77
2024/01/13 04:59:40;;;;;;;6.97;4.57;;;;;;;4.32;81.92;100579.88;4972255;28;20054;-76
2024/01/13 05:02:06;;;;;;;5.63;4.07;;;;;;;4.33;82.03;100580.75;4971733;28;20093;-76
2024/01/13 05:04:33;;;;;;;4.90;4.00;;;;;;;4.32;82.14;100576.38;4972080;28;20476;-77
2024/01/13 05:06:59;;;;;;;4.95;4.22;;;;;;;4.32;82.00;100573.78;4972167;28;20054;-78
2024/01/13 05:09:26;;;;;;;4.95;4.38;;;;;;;4.32;82.32;100572.03;4955244;28;20530;-76
2024/01/13 05:11:53;;;;;;;6.30;5.10;;;;;;;4.34;82.28;100587.66;4972018;28;20420;-76
2024/01/13 05:14:20;;;;;;;5.40;4.47;;;;;;;4.35;82.47;100584.16;4971957;28;20065;-76
2024/01/13 05:16:46;;;;;;;7.53;5.18;;;;;;;4.34;82.33;100578.06;4972000;28;20496;-76
2024/01/13 05:19:13;;;;;;;6.88;5.60;;;;;;;4.36;82.34;100585.88;4971934;28;20129;-77
2024/01/13 05:21:39;;;;;;;6.65;5.15;;;;;;;4.36;82.37;100581.53;4971624;28;20043;-77
2024/01/13 05:24:06;;;;;;;8.07;5.15;;;;;;;4.38;82.27;100577.13;4971872;28;20214;-76
2024/01/13 05:26:33;;;;;;;6.00;4.85;;;;;;;4.39;82.28;100575.41;4971769;28;20385;-77
2024/01/13 05:29:00;;;;;;;6.88;5.07;;;;;;;4.41;82.47;100568.44;4971824;28;20066;-76
2024/01/13 05:31:26;;;;;;;8.38;6.00;;;;;;;4.39;82.30;100563.25;4971499;28;20094;-75
2024/01/13 05:33:55;;;;;;;7.38;5.70;;;;;;;4.41;82.21;100571.03;4972195;28;20078;-76
2024/01/13 05:36:22;;;;;;;11.15;6.07;;;;;;;4.41;82.31;100564.06;4954438;28;20043;-77
2024/01/13 05:38:49;;;;;;;8.30;6.13;;;;;;;4.43;82.22;100561.44;4971971;28;20051;-77
2024/01/13 05:41:15;;;;;;;8.57;6.53;;;;;;;4.43;82.18;100551.00;4971480;28;20051;-77
2024/01/13 05:43:43;;;;;;;7.72;5.88;;;;;;;4.43;82.15;100545.78;4971679;28;20051;-76
2024/01/13 05:46:11;;;;;;;7.03;5.43;;;;;;;4.43;82.07;100540.56;4971578;28;20073;-75
2024/01/13 05:48:38;;;;;;;7.20;5.22;;;;;;;4.43;81.98;100532.75;4971638;28;20059;-77
2024/01/13 05:51:07;;;;;;;6.32;4.85;;;;;;;4.43;81.92;100527.53;4974224;28;20086;-77
2024/01/13 05:53:34;;;;;;;9.15;5.07;;;;;;;4.42;81.98;100515.41;4975495;28;20053;-76
2024/01/13 05:56:01;;;;;;;6.47;5.18;;;;;;;4.41;81.60;100517.13;4975368;28;20495;-77
2024/01/13 05:58:28;;;;;;;7.55;5.38;;;;;;;4.42;82.22;100518.00;4975369;28;20509;-77
2024/01/13 06:00:55;;;;;;;5.97;4.78;;;;;;;4.41;82.26;100522.34;4975421;28;20159;-77
2024/01/13 06:03:21;;;;;;;7.93;5.13;;;;;;;4.42;82.36;100531.88;4975128;28;20089;-77
2024/01/13 06:05:48;;;;;;;7.57;5.63;;;;;;;4.43;82.20;100530.16;4958155;28;20067;-77
2024/01/13 06:08:15;;;;;;;7.32;5.55;;;;;;;4.42;82.18;100523.22;4975320;28;20126;-76
2024/01/13 06:10:42;;;;;;;9.00;6.65;;;;;;;4.42;82.06;100533.66;4975012;28;20046;-74
2024/01/13 06:13:09;;;;;;;8.32;6.60;;;;;;;4.41;82.25;100531.94;4958014;28;20137;-75
2024/01/13 06:15:35;;;;;;;8.45;6.28;;;;;;;4.42;82.27;100538.84;4975002;28;20637;-73
2024/01/13 06:18:02;;;;;;;9.50;6.50;;;;;;;4.43;82.10;100551.00;4974785;28;20403;-74
2024/01/13 06:20:29;;;;;;;10.55;6.93;;;;;;;4.43;82.54;100525.81;4957721;28;20047;-74
2024/01/13 06:22:56;;;;;;;10.10;7.22;;;;;;;4.43;82.34;100520.59;4974766;28;20050;-73
2024/01/13 06:28:02;;;;;;;11.93;7.50;;;;;;;4.44;82.34;100516.22;5174010;23;20124;-74
2024/01/13 06:30:29;;;;;;;10.45;7.70;;;;;;;4.46;82.08;100505.75;4975188;28;20058;-75
2024/01/13 06:32:56;;;;;;;10.43;8.07;;;;;;;4.45;82.11;100493.63;4957578;28;20054;-74
2024/01/13 06:35:22;;;;;;;13.93;9.27;;;;;;;4.46;82.20;100483.16;4974621;28;20078;-75
2024/01/13 06:37:50;;;;;;;12.90;8.85;;;;;;;4.44;81.96;100477.09;4974782;28;20046;-74
2024/01/13 06:40:17;;;;;;;13.13;9.27;;;;;;;4.43;82.13;100464.97;4974672;28;20047;-75
2024/01/13 06:42:43;;;;;;;11.63;9.02;;;;;;;4.43;82.00;100462.38;4973979;28;20223;-74
2024/01/13 06:45:10;;;;;;;13.10;10.18;;;;;;;4.41;82.16;100453.72;4974813;28;20046;-75
2024/01/13 06:47:36;;;;;;;13.77;9.75;;;;;;;4.39;82.13;100435.50;4974438;28;20582;-74
2024/01/13 06:50:03;;;;;;;11.98;9.18;;;;;;;4.37;82.18;100426.00;4974556;28;20051;-74
2024/01/13 06:52:30;;;;;;;12.95;9.50;;;;;;;4.37;82.23;100412.97;4974280;28;20531;-73
2024/01/13 06:54:57;;;;;;;12.95;10.00;;;;;;;4.35;82.24;100401.72;4974348;28;20502;-74
2024/01/13 06:57:23;;;;;;;13.68;10.48;;;;;;;4.34;82.41;100400.00;4974413;28;20050;-74
2024/01/13 06:59:50;;;;;;;14.68;10.90;;;;;;;4.32;82.32;100394.81;4974942;28;20106;-74
2024/01/13 07:02:17;;;;;;;15.35;11.30;;;;;;;4.32;82.47;100396.53;4973835;28;20061;-74
2024/01/13 07:04:45;;;;;;;16.77;11.80;;;;;;;4.31;82.55;100403.53;4974020;28;20046;-74
2024/01/13 07:07:11;;;;;;;16.77;12.10;;;;;;;4.30;82.52;100423.50;4974200;28;20047;-75
2024/01/13 07:09:38;;;;;;;15.00;11.13;;;;;;;4.30;82.87;100436.53;4974142;28;20047;-73
2024/01/13 07:12:05;;;;;;;15.18;11.15;;;;;;;4.32;82.66;100425.22;4973873;28;20092;-74
2024/01/13 07:14:32;;;;;;;18.17;11.82;;;;;;;4.34;83.01;100407.81;4956905;28;20051;-74
2024/01/13 07:16:59;;;;;;;17.48;12.95;;;;;;;4.34;82.65;100402.59;4973738;28;20046;-72
2024/01/13 07:19:25;;;;;;;17.27;11.93;;;;;;;4.34;83.01;100402.59;4973842;28;20135;-74
2024/01/13 07:21:53;;;;;;;18.33;12.52;;;;;;;4.35;82.67;100396.50;4956521;28;20061;-74
2024/01/13 07:24:20;;;;;;;18.88;13.65;;;;;;;4.35;82.63;100397.38;4956668;28;20057;-74
2024/01/13 07:26:46;;;;;;;18.73;12.20;;;;;;;4.36;82.71;100388.66;4956604;28;20070;-74
2024/01/13 07:29:16;;;;;;;18.33;13.27;;;;;;;4.37;82.62;100371.28;4973560;28;20058;-74
2024/01/13 07:31:43;;;;;;;18.50;12.55;;;;;;;4.37;82.72;100371.28;4973524;28;20559;-74
2024/01/13 07:34:10;;;;;;;17.77;13.60;;;;;;;4.37;82.69;100353.88;4973614;28;20047;-74
2024/01/13 07:36:37;;;;;;;17.85;12.63;;;;;;;4.37;82.59;100361.69;4973431;28;20093;-74
2024/01/13 07:39:09;;;;;;;18.83;13.20;;;;;;;4.37;82.63;100382.53;4973309;28;20173;-74
2024/01/13 07:41:36;;;;;;;16.98;13.27;;;;;;;4.39;82.64;100372.06;4973377;28;20061;-73
2024/01/13 07:44:03;;;;;;;18.05;12.80;;;;;;;4.39;82.69;100365.13;4973507;28;20073;-74
2024/01/13 07:46:30;;;;;;;19.15;13.25;;;;;;;4.39;82.66;100382.50;4973442;28;20054;-74
2024/01/13 07:48:56;;;;;;;20.88;13.75;;;;;;;4.39;82.70;100379.91;4973294;28;20058;-73
2024/01/13 07:51:23;;;;;;;19.33;13.32;;;;;;;4.41;82.66;100373.75;4973065;28;20125;-75
2024/01/13 07:53:59;;;;;;;22.27;14.98;;;;;;;4.41;82.59;100378.13;4938707;23;20229;-75
2024/01/13 07:56:25;;;;;;;19.88;14.75;;;;;;;4.42;82.79;100379.84;4973330;28;20047;-73
2024/01/13 07:58:52;;;;;;;18.13;12.90;;;;;;;4.43;82.79;100376.34;4973182;28;20062;-73
2024/01/13 08:01:19;;;;;;;20.95;14.25;;;;;;;4.44;82.92;100380.66;4972670;28;20050;-73
2024/01/13 08:04:00;;;;;;;18.35;12.80;;;;;;;4.48;82.90;100365.81;4972910;28;20117;-73
2024/01/13 08:06:29;;;;;;;19.95;13.13;;;;;;;4.49;82.61;100364.94;4973344;28;20047;-71
2024/01/13 08:08:57;;;;;;;19.30;13.52;;;;;;;4.50;82.81;100359.69;4973022;28;20057;-74
2024/01/13 08:11:23;;;;;;;21.38;14.02;;;;;;;4.52;82.61;100362.25;4972793;28;20054;-73
2024/01/13 08:14:03;;;;;;;20.95;14.55;;;;;;;4.53;82.39;100356.97;4972208;28;20081;-72
2024/01/13 08:16:29;;;;;;;19.52;14.23;;;;;;;4.51;82.46;100353.56;4972615;28;20085;-73
2024/01/13 08:18:57;;;;;;;23.02;15.05;;;;;;;4.51;82.61;100369.22;4955637;28;20086;-74
2024/01/13 08:21:24;;;;;;;21.23;14.38;;;;;;;4.52;82.80;100367.47;4955533;28;20051;-73
2024/01/13 08:24:04;;;;;;;22.52;15.23;;;;;;;4.52;82.62;100391.78;4972671;28;20055;-72
2024/01/13 08:26:31;;;;;;;19.95;13.02;;;;;;;4.52;82.75;100370.09;4972532;28;20133;-74
2024/01/13 08:28:57;;;;;;;20.48;13.75;;;;;;;4.52;82.86;100357.03;4972469;28;20055;-73
2024/01/13 08:31:24;;;;;;;20.63;13.80;;;;;;;4.54;82.86;100355.25;4972539;28;20061;-73
2024/01/13 08:34:04;;;;;;;20.10;12.90;;;;;;;4.56;82.78;100343.03;4971926;28;20074;-73
2024/01/13 08:36:31;;;;;;;19.25;13.82;;;;;;;4.57;83.15;100331.72;4972187;28;20546;-74
2024/01/13 08:38:58;;;;;;;17.27;12.40;;;;;;;4.59;82.98;100329.91;4972382;28;20538;-73
2024/01/13 09:00:22;;;;;;;18.73;12.48;;;;;;;4.65;82.72;100334.16;4972407;28;20045;-74
2024/01/13 09:02:48;;;;;;;15.45;10.60;;;;;;;4.63;82.86;100322.91;4972479;28;20097;-73
2024/01/13 09:05:15;;;;;;;17.02;12.15;;;;;;;4.62;82.87;100324.66;4973290;28;20061;-72
2024/01/13 09:07:41;;;;;;;18.08;12.05;;;;;;;4.62;82.92;100331.59;4973090;28;20054;-73
2024/01/13 09:10:08;;;;;;;17.40;11.85;;;;;;;4.63;83.05;100330.72;4973424;28;20051;-73
2024/01/13 09:12:34;;;;;;;17.30;12.07;;;;;;;4.64;83.21;100325.44;4973199;28;20050;-73
2024/01/13 09:15:01;;;;;;;14.95;10.77;;;;;;;4.66;83.07;100317.59;4972980;28;20135;-73
2024/01/13 09:17:28;;;;;;;17.33;12.05;;;;;;;4.68;83.19;100315.81;4971704;28;20090;-73
2024/01/13 09:19:55;;;;;;;16.98;11.85;;;;;;;4.68;82.90;100319.28;4971768;28;20416;-73
2024/01/13 09:22:21;;;;;;;15.38;10.63;;;;;;;4.69;83.09;100302.75;4971802;28;20051;-72
2024/01/13 09:24:48;;;;;;;16.65;10.57;;;;;;;4.71;82.89;100304.47;4975768;28;20141;-73
2024/01/13 09:27:17;;;;;;;15.68;10.65;;;;;;;4.70;82.82;100303.59;4978433;28;20050;-74
2024/01/13 09:29:46;;;;;;;13.90;9.63;;;;;;;4.72;82.71;100306.16;4978180;28;20054;-74
2024/01/13 09:32:13;;;;;;;14.13;9.80;;;;;;;4.73;82.96;100292.22;4977869;28;20134;-74
2024/01/13 09:34:39;;;;;;;12.55;8.93;;;;;;;4.73;83.22;100293.09;4978499;28;20054;-74
2024/01/13 09:37:06;;;;;;;16.02;9.95;;;;;;;4.74;83.38;100288.75;4978130;28;20053;-73
2024/01/13 09:39:32;;;;;;;14.98;10.25;;;;;;;4.76;83.23;100280.00;4978236;28;20055;-73
2024/01/13 09:42:02;;;;;;;14.35;9.70;;;;;;;4.77;83.09;100275.63;4977811;28;20485;-75
2024/01/13 09:44:30;;;;;;;13.38;9.35;;;;;;;4.79;83.21;100269.47;4977783;28;20068;-73
2024/01/13 09:46:59;;;;;;;14.57;10.35;;;;;;;4.79;82.97;100279.06;4960694;28;20563;-74
2024/01/13 09:49:30;;;;;;;12.93;9.05;;;;;;;4.81;83.14;100279.88;4977662;28;20054;-73
2024/01/13 09:52:02;;;;;;;13.57;9.32;;;;;;;4.83;83.18;100272.88;4978194;28;20062;-74
2024/01/13 09:54:30;;;;;;;14.93;10.13;;;;;;;4.82;82.80;100258.97;4977780;28;20062;-73
2024/01/13 09:56:57;;;;;;;14.07;9.60;;;;;;;4.84;82.85;100264.16;4977853;28;20113;-73
2024/01/13 09:59:28;;;;;;;13.73;9.32;;;;;;;4.85;83.01;100263.25;4977791;28;20082;-74
2024/01/13 10:01:57;;;;;;;13.52;8.82;;;;;;;4.87;83.17;100260.59;4977546;28;20152;-73
2024/01/13 10:04:25;;;;;;;11.95;8.68;;;;;;;4.88;83.20;100259.69;4960496;28;20515;-73
2024/01/13 10:06:51;;;;;;;11.85;8.52;;;;;;;4.89;83.48;100256.19;4977903;28;20055;-71
2024/01/13 10:09:19;;;;;;;12.57;8.63;;;;;;;4.90;83.20;100266.59;4977840;28;20130;-73
2024/01/13 10:12:02;;;;;;;11.73;8.32;;;;;;;4.91;83.05;100259.63;4977561;28;20059;-73
2024/01/13 10:14:29;;;;;;;12.93;9.23;;;;;;;4.92;82.85;100256.13;4977853;28;20154;-73
2024/01/13 10:17:01;;;;;;;14.05;9.48;;;;;;;4.92;82.69;100261.34;4977738;28;20047;-74
2024/01/13 10:19:27;;;;;;;12.57;8.65;;;;;;;4.93;83.07;100252.59;4960669;28;20089;-74
2024/01/13 10:21:56;;;;;;;13.80;10.13;;;;;;;4.93;83.04;100248.25;4977460;28;20051;-73
2024/01/13 10:24:23;;;;;;;14.23;9.75;;;;;;;4.94;83.32;100254.34;4977497;28;20051;-73
2024/01/13 10:26:49;;;;;;;17.55;11.20;;;;;;;4.94;83.51;100252.56;4977860;28;20058;-73
2024/01/13 10:29:18;;;;;;;16.70;11.27;;;;;;;4.97;83.40;100256.00;4977510;28;20509;-72
2024/01/13 10:31:46;;;;;;;15.23;9.93;;;;;;;4.98;83.20;100257.72;4977460;28;20081;-74
2024/01/13 10:34:12;;;;;;;15.48;10.90;;;;;;;4.99;83.11;100251.59;4977525;28;20054;-73
2024/01/13 10:36:39;;;;;;;15.73;11.43;;;;;;;5.01;83.22;100247.22;4974557;28;20145;-73
2024/01/13 10:39:07;;;;;;;16.48;11.20;;;;;;;5.01;83.15;100247.22;4957520;28;20062;-73
2024/01/13 10:41:37;;;;;;;14.38;10.55;;;;;;;5.03;83.05;100234.97;4974248;28;20515;-73
2024/01/13 10:44:07;;;;;;;13.13;9.38;;;;;;;5.04;83.16;100219.28;4974474;28;20093;-74
2024/01/13 10:46:37;;;;;;;13.25;9.88;;;;;;;5.05;83.10;100225.38;4974447;28;20051;-73
2024/01/13 10:49:15;;;;;;;15.10;10.85;;;;;;;5.03;82.42;100222.78;4974422;28;20054;-73
2024/01/13 10:51:48;;;;;;;16.95;10.98;;;;;;;5.07;82.97;100206.16;4974120;28;20552;-74
2024/01/13 10:54:17;;;;;;;11.55;8.55;;;;;;;5.08;82.62;100218.31;4974127;28;20083;-71
2024/01/13 10:56:44;;;;;;;16.77;10.55;;;;;;;5.09;82.78;100208.72;4974233;28;20047;-73
2024/01/13 10:59:11;;;;;;;14.73;11.13;;;;;;;5.09;82.90;100201.75;4974202;28;20054;-74
2024/01/13 11:01:38;;;;;;;14.30;10.63;;;;;;;5.10;82.85;100197.38;4973910;28;20502;-73
2024/01/13 11:04:05;;;;;;;15.02;10.32;;;;;;;5.09;83.02;100199.13;4956838;28;20054;-74
2024/01/13 11:06:31;;;;;;;15.10;9.80;;;;;;;5.11;83.10;100201.69;4974313;28;20130;-73
2024/01/13 11:09:00;;;;;;;15.00;11.00;;;;;;;5.11;82.83;100191.25;4956792;28;20051;-74
2024/01/13 11:11:38;;;;;;;13.68;9.80;;;;;;;5.11;82.76;100190.41;4956593;28;20141;-74
2024/01/13 11:14:14;;;;;;;11.73;9.23;;;;;;;5.13;82.63;100196.44;4973821;28;20063;-73
2024/01/13 11:16:44;;;;;;;13.77;9.57;;;;;;;5.14;83.06;100190.31;4973844;28;20404;-73
2024/01/13 11:19:11;;;;;;;15.52;10.48;;;;;;;5.16;82.90;100193.75;4974052;28;20390;-73
2024/01/13 11:21:39;;;;;;;13.63;9.63;;;;;;;5.18;82.88;100197.16;4973846;28;20459;-73
2024/01/13 11:24:13;;;;;;;17.27;11.43;;;;;;;5.17;82.84;100183.28;4973902;28;20054;-74
2024/01/13 11:26:47;;;;;;;14.80;10.65;;;;;;;5.17;82.45;100185.88;4973899;28;20051;-73
2024/01/13 11:29:18;;;;;;;;;;;;;;;5.20;82.30;100177.13;4974427;28;20078;-74
2024/01/13 11:31:48;;;;;;;16.48;10.60;;;;;;;5.23;82.47;100174.41;4973921;28;19996;-74
2024/01/13 11:34:16;;;;;;;16.48;11.48;;;;;;;5.22;82.48;100183.13;4973822;28;20055;-74
2024/01/13 11:39:25;;;;;;;18.83;12.48;;;;;;;5.20;82.83;100174.50;4914306;29;20079;-73
2024/01/13 11:41:56;;;;;;;16.92;12.02;;;;;;;5.19;82.78;100171.03;4915731;29;20056;-73
2024/01/13 11:44:25;;;;;;;20.35;12.40;;;;;;;5.20;82.84;100172.72;4899644;29;20135;-73
2024/01/13 11:47:02;;;;;;;17.45;12.55;;;;;;;5.18;82.19;100173.69;4915652;29;20117;-73
2024/01/13 11:49:30;;;;;;;20.20;12.68;;;;;;;5.22;82.91;100172.69;4915567;29;20151;-73
2024/01/13 11:51:57;;;;;;;21.27;13.20;;;;;;;5.22;82.96;100159.66;4915685;29;20872;-74
2024/01/13 11:54:25;;;;;;;21.10;13.90;;;;;;;5.22;82.94;100165.72;4915868;29;20095;-74
2024/01/13 11:56:52;;;;;;;20.98;13.77;;;;;;;5.23;82.73;100150.91;4915871;29;20405;-74
2024/01/13 11:59:20;;;;;;;20.60;14.50;;;;;;;5.24;82.55;100147.44;4915733;29;20453;-72